sensor_id;sensor_type;location;lat;lon;timestamp;temperature;humidity
47226;DHT22;32965;64.142;-21.912;2022-09-21T00:00:24;10.00;99.90
47226;DHT22;32965;64.142;-21.912;2022-09-21T00:02:50;9.90;99.90
47226;DHT22;32965;64.142;-21.912;2022-09-21T00:05:16;9.80;99.90
47226;DHT22;32965;64.142;-21.912;2022-09-21T00:07:43;9.70;99.90
47226;DHT22;32965;64.142;-21.912;2022-09-21T00:10:09;9.60;99.90
47226;DHT22;32965;64.142;-21.912;2022-09-21T00:12:35;9.60;99.90
47226;DHT22;32965;64.142;-21.912;2022-09-21T00:15:07;9.50;99.90
47226;DHT22;32965;64.142;-21.912;2022-09-21T00:17:36;9.40;99.90
47226;DHT22;32965;64.142;-21.912;2022-09-21T00:20:03;9.40;99.90
47226;DHT22;32965;64.142;-21.912;2022-09-21T00:22:31;9.30;99.90
47226;DHT22;32965;64.142;-21.912;2022-09-21T00:24:57;9.30;99.90
47226;DHT22;32965;64.142;-21.912;2022-09-21T00:27:23;9.20;99.90
47226;DHT22;32965;64.142;-21.912;2022-09-21T00:29:57;9.20;99.90
47226;DHT22;32965;64.142;-21.912;2022-09-21T00:32:25;9.20;99.90
47226;DHT22;32965;64.142;-21.912;2022-09-21T00:34:51;9.20;99.90
47226;DHT22;32965;64.142;-21.912;2022-09-21T00:37:20;9.20;99.90
47226;DHT22;32965;64.142;-21.912;2022-09-21T00:39:46;9.20;99.90
47226;DHT22;32965;64.142;-21.912;2022-09-21T00:42:23;9.30;99.90
47226;DHT22;32965;64.142;-21.912;2022-09-21T00:44:50;9.20;99.90
47226;DHT22;32965;64.142;-21.912;2022-09-21T00:47:20;9.30;99.90
47226;DHT22;32965;64.142;-21.912;2022-09-21T00:49:50;9.30;99.90
47226;DHT22;32965;64.142;-21.912;2022-09-21T00:52:19;9.30;99.90
47226;DHT22;32965;64.142;-21.912;2022-09-21T00:54:53;9.30;99.90
47226;DHT22;32965;64.142;-21.912;2022-09-21T00:57:23;9.40;99.90
47226;DHT22;32965;64.142;-21.912;2022-09-21T00:59:53;9.40;99.90
47226;DHT22;32965;64.142;-21.912;2022-09-21T01:02:20;9.40;99.90
47226;DHT22;32965;64.142;-21.912;2022-09-21T01:04:47;9.40;99.90
47226;DHT22;32965;64.142;-21.912;2022-09-21T01:07:17;9.40;99.90
47226;DHT22;32965;64.142;-21.912;2022-09-21T01:09:48;9.40;99.90
47226;DHT22;32965;64.142;-21.912;2022-09-21T01:18:17;9.50;99.90
47226;DHT22;32965;64.142;-21.912;2022-09-21T01:32:30;9.60;99.90
47226;DHT22;32965;64.142;-21.912;2022-09-21T01:35:16;9.50;99.90
47226;DHT22;32965;64.142;-21.912;2022-09-21T01:38:02;9.40;99.90
47226;DHT22;32965;64.142;-21.912;2022-09-21T01:40:41;9.30;99.90
47226;DHT22;32965;64.142;-21.912;2022-09-21T01:43:11;9.20;99.90
47226;DHT22;32965;64.142;-21.912;2022-09-21T01:45:43;9.10;99.90
47226;DHT22;32965;64.142;-21.912;2022-09-21T01:48:11;9.10;99.90
47226;DHT22;32965;64.142;-21.912;2022-09-21T01:50:43;9.00;99.90
47226;DHT22;32965;64.142;-21.912;2022-09-21T01:53:36;9.00;99.90
47226;DHT22;32965;64.142;-21.912;2022-09-21T01:56:15;9.10;99.90
47226;DHT22;32965;64.142;-21.912;2022-09-21T02:01:58;9.10;99.90
47226;DHT22;32965;64.142;-21.912;2022-09-21T02:04:25;9.10;99.90
47226;DHT22;32965;64.142;-21.912;2022-09-21T02:06:52;9.10;99.90
47226;DHT22;32965;64.142;-21.912;2022-09-21T02:09:18;9.10;99.90
47226;DHT22;32965;64.142;-21.912;2022-09-21T02:11:44;9.10;99.90
47226;DHT22;32965;64.142;-21.912;2022-09-21T02:14:17;9.10;99.90
47226;DHT22;32965;64.142;-21.912;2022-09-21T02:19:20;9.20;99.90
47226;DHT22;32965;64.142;-21.912;2022-09-21T02:22:16;9.20;99.90
47226;DHT22;32965;64.142;-21.912;2022-09-21T02:24:46;9.20;99.90
47226;DHT22;32965;64.142;-21.912;2022-09-21T02:33:04;9.20;99.90
47226;DHT22;32965;64.142;-21.912;2022-09-21T02:35:50;9.20;99.90
47226;DHT22;32965;64.142;-21.912;2022-09-21T02:38:20;9.20;99.90
47226;DHT22;32965;64.142;-21.912;2022-09-21T02:41:15;9.20;99.90
47226;DHT22;32965;64.142;-21.912;2022-09-21T02:49:24;9.10;99.90
47226;DHT22;32965;64.142;-21.912;2022-09-21T02:51:57;9.10;99.90
47226;DHT22;32965;64.142;-21.912;2022-09-21T02:54:26;9.10;99.90
47226;DHT22;32965;64.142;-21.912;2022-09-21T02:56:54;9.10;99.90
47226;DHT22;32965;64.142;-21.912;2022-09-21T02:59:21;9.10;99.90
47226;DHT22;32965;64.142;-21.912;2022-09-21T03:01:49;9.00;99.90
47226;DHT22;32965;64.142;-21.912;2022-09-21T03:04:16;9.00;99.90
47226;DHT22;32965;64.142;-21.912;2022-09-21T03:06:41;9.00;99.90
47226;DHT22;32965;64.142;-21.912;2022-09-21T03:09:08;8.90;99.90
47226;DHT22;32965;64.142;-21.912;2022-09-21T03:11:34;8.90;99.90
47226;DHT22;32965;64.142;-21.912;2022-09-21T03:14:03;8.90;99.90
47226;DHT22;32965;64.142;-21.912;2022-09-21T03:16:37;8.90;99.90
47226;DHT22;32965;64.142;-21.912;2022-09-21T03:19:03;8.90;99.90
47226;DHT22;32965;64.142;-21.912;2022-09-21T03:21:30;8.80;99.90
47226;DHT22;32965;64.142;-21.912;2022-09-21T03:23:56;8.90;99.90
47226;DHT22;32965;64.142;-21.912;2022-09-21T03:26:21;8.90;99.90
47226;DHT22;32965;64.142;-21.912;2022-09-21T03:28:48;8.90;99.90
47226;DHT22;32965;64.142;-21.912;2022-09-21T03:31:14;8.90;99.90
47226;DHT22;32965;64.142;-21.912;2022-09-21T03:33:40;8.90;99.90
47226;DHT22;32965;64.142;-21.912;2022-09-21T03:36:06;8.90;99.90
47226;DHT22;32965;64.142;-21.912;2022-09-21T03:38:32;8.90;99.90
47226;DHT22;32965;64.142;-21.912;2022-09-21T03:40:59;8.90;99.90
47226;DHT22;32965;64.142;-21.912;2022-09-21T03:43:25;9.00;99.90
47226;DHT22;32965;64.142;-21.912;2022-09-21T03:45:51;9.00;99.90
47226;DHT22;32965;64.142;-21.912;2022-09-21T03:48:17;9.00;99.90
47226;DHT22;32965;64.142;-21.912;2022-09-21T03:50:43;9.00;99.90
47226;DHT22;32965;64.142;-21.912;2022-09-21T03:53:09;9.00;99.90
47226;DHT22;32965;64.142;-21.912;2022-09-21T03:55:35;9.10;99.90
47226;DHT22;32965;64.142;-21.912;2022-09-21T03:58:01;9.00;99.90
47226;DHT22;32965;64.142;-21.912;2022-09-21T04:00:28;9.00;99.90
47226;DHT22;32965;64.142;-21.912;2022-09-21T04:02:54;9.10;99.90
47226;DHT22;32965;64.142;-21.912;2022-09-21T04:05:20;9.10;99.90
47226;DHT22;32965;64.142;-21.912;2022-09-21T04:07:48;9.10;99.90
47226;DHT22;32965;64.142;-21.912;2022-09-21T04:10:17;9.10;99.90
47226;DHT22;32965;64.142;-21.912;2022-09-21T04:12:44;9.10;99.90
47226;DHT22;32965;64.142;-21.912;2022-09-21T04:15:15;9.10;99.90
47226;DHT22;32965;64.142;-21.912;2022-09-21T04:17:49;9.10;99.90
47226;DHT22;32965;64.142;-21.912;2022-09-21T04:20:15;9.10;99.90
47226;DHT22;32965;64.142;-21.912;2022-09-21T04:22:41;9.10;99.90
47226;DHT22;32965;64.142;-21.912;2022-09-21T04:25:08;9.10;99.90
47226;DHT22;32965;64.142;-21.912;2022-09-21T04:27:34;9.10;99.90
47226;DHT22;32965;64.142;-21.912;2022-09-21T04:30:00;9.10;99.90
47226;DHT22;32965;64.142;-21.912;2022-09-21T04:32:26;9.10;99.90
47226;DHT22;32965;64.142;-21.912;2022-09-21T04:34:52;9.10;99.90
47226;DHT22;32965;64.142;-21.912;2022-09-21T04:37:18;9.10;99.90
47226;DHT22;32965;64.142;-21.912;2022-09-21T04:39:44;9.10;99.90
47226;DHT22;32965;64.142;-21.912;2022-09-21T04:42:10;9.10;99.90
47226;DHT22;32965;64.142;-21.912;2022-09-21T04:44:35;9.10;99.90
47226;DHT22;32965;64.142;-21.912;2022-09-21T04:47:01;9.20;99.90
47226;DHT22;32965;64.142;-21.912;2022-09-21T04:49:27;9.20;99.90
47226;DHT22;32965;64.142;-21.912;2022-09-21T04:51:53;9.20;99.90
47226;DHT22;32965;64.142;-21.912;2022-09-21T04:54:19;9.20;99.90
47226;DHT22;32965;64.142;-21.912;2022-09-21T04:56:44;9.20;99.90
47226;DHT22;32965;64.142;-21.912;2022-09-21T04:59:10;9.20;99.90
47226;DHT22;32965;64.142;-21.912;2022-09-21T05:01:37;9.20;99.90
47226;DHT22;32965;64.142;-21.912;2022-09-21T05:04:03;9.30;99.90
47226;DHT22;32965;64.142;-21.912;2022-09-21T05:06:29;9.20;99.90
47226;DHT22;32965;64.142;-21.912;2022-09-21T05:08:55;9.30;99.90
47226;DHT22;32965;64.142;-21.912;2022-09-21T05:11:39;9.20;99.90
47226;DHT22;32965;64.142;-21.912;2022-09-21T05:14:05;9.20;99.90
47226;DHT22;32965;64.142;-21.912;2022-09-21T05:16:31;9.20;99.90
47226;DHT22;32965;64.142;-21.912;2022-09-21T05:18:57;9.20;99.90
47226;DHT22;32965;64.142;-21.912;2022-09-21T05:21:23;9.20;99.90
47226;DHT22;32965;64.142;-21.912;2022-09-21T05:23:49;9.20;99.90
47226;DHT22;32965;64.142;-21.912;2022-09-21T05:26:15;9.20;99.90
47226;DHT22;32965;64.142;-21.912;2022-09-21T05:28:43;9.20;99.90
47226;DHT22;32965;64.142;-21.912;2022-09-21T05:31:26;9.20;99.90
47226;DHT22;32965;64.142;-21.912;2022-09-21T05:39:48;9.10;99.90
47226;DHT22;32965;64.142;-21.912;2022-09-21T05:42:14;9.10;99.90
47226;DHT22;32965;64.142;-21.912;2022-09-21T05:44:40;9.20;99.90
47226;DHT22;32965;64.142;-21.912;2022-09-21T05:50:41;9.20;99.90
47226;DHT22;32965;64.142;-21.912;2022-09-21T05:55:59;9.20;99.90
47226;DHT22;32965;64.142;-21.912;2022-09-21T06:01:39;9.20;99.90
47226;DHT22;32965;64.142;-21.912;2022-09-21T06:04:10;9.30;99.90
47226;DHT22;32965;64.142;-21.912;2022-09-21T06:06:38;9.20;99.90
47226;DHT22;32965;64.142;-21.912;2022-09-21T06:09:04;9.20;99.90
47226;DHT22;32965;64.142;-21.912;2022-09-21T06:11:31;9.30;99.90
47226;DHT22;32965;64.142;-21.912;2022-09-21T06:13:56;9.30;99.90
47226;DHT22;32965;64.142;-21.912;2022-09-21T06:16:22;9.30;99.90
47226;DHT22;32965;64.142;-21.912;2022-09-21T06:18:48;9.30;99.90
47226;DHT22;32965;64.142;-21.912;2022-09-21T06:21:14;9.30;99.90
47226;DHT22;32965;64.142;-21.912;2022-09-21T06:23:41;9.30;99.90
47226;DHT22;32965;64.142;-21.912;2022-09-21T06:26:07;9.30;99.90
47226;DHT22;32965;64.142;-21.912;2022-09-21T06:28:33;9.30;99.90
47226;DHT22;32965;64.142;-21.912;2022-09-21T06:30:59;9.30;99.90
47226;DHT22;32965;64.142;-21.912;2022-09-21T06:33:25;9.30;99.90
47226;DHT22;32965;64.142;-21.912;2022-09-21T06:36:00;9.30;99.90
47226;DHT22;32965;64.142;-21.912;2022-09-21T06:38:26;9.30;99.90
47226;DHT22;32965;64.142;-21.912;2022-09-21T06:40:52;9.30;99.90
47226;DHT22;32965;64.142;-21.912;2022-09-21T06:43:20;9.30;99.90
47226;DHT22;32965;64.142;-21.912;2022-09-21T06:45:53;9.30;99.90
47226;DHT22;32965;64.142;-21.912;2022-09-21T06:48:19;9.40;99.90
47226;DHT22;32965;64.142;-21.912;2022-09-21T06:50:46;9.40;99.90
47226;DHT22;32965;64.142;-21.912;2022-09-21T06:53:12;9.40;99.90
47226;DHT22;32965;64.142;-21.912;2022-09-21T06:55:39;9.40;99.90
47226;DHT22;32965;64.142;-21.912;2022-09-21T06:58:05;9.30;99.90
47226;DHT22;32965;64.142;-21.912;2022-09-21T07:00:31;9.40;99.90
47226;DHT22;32965;64.142;-21.912;2022-09-21T07:02:58;9.30;99.90
47226;DHT22;32965;64.142;-21.912;2022-09-21T07:05:24;9.40;99.90
47226;DHT22;32965;64.142;-21.912;2022-09-21T07:07:50;9.40;99.90
47226;DHT22;32965;64.142;-21.912;2022-09-21T07:10:15;9.40;99.90
47226;DHT22;32965;64.142;-21.912;2022-09-21T07:12:42;9.40;99.90
47226;DHT22;32965;64.142;-21.912;2022-09-21T07:15:09;9.40;99.90
47226;DHT22;32965;64.142;-21.912;2022-09-21T07:17:37;9.40;99.90
47226;DHT22;32965;64.142;-21.912;2022-09-21T07:20:04;9.50;99.90
47226;DHT22;32965;64.142;-21.912;2022-09-21T07:22:31;9.50;99.90
47226;DHT22;32965;64.142;-21.912;2022-09-21T07:24:57;9.50;99.90
47226;DHT22;32965;64.142;-21.912;2022-09-21T07:27:29;9.60;99.90
47226;DHT22;32965;64.142;-21.912;2022-09-21T07:29:55;9.60;99.90
47226;DHT22;32965;64.142;-21.912;2022-09-21T07:32:20;9.60;99.90
47226;DHT22;32965;64.142;-21.912;2022-09-21T07:34:46;9.60;99.90
47226;DHT22;32965;64.142;-21.912;2022-09-21T07:37:13;9.70;99.90
47226;DHT22;32965;64.142;-21.912;2022-09-21T07:39:39;9.80;99.90
47226;DHT22;32965;64.142;-21.912;2022-09-21T07:42:05;9.80;99.90
47226;DHT22;32965;64.142;-21.912;2022-09-21T07:44:32;9.80;99.90
47226;DHT22;32965;64.142;-21.912;2022-09-21T07:46:58;9.80;99.90
47226;DHT22;32965;64.142;-21.912;2022-09-21T07:49:25;9.80;99.90
47226;DHT22;32965;64.142;-21.912;2022-09-21T07:51:51;9.80;99.90
47226;DHT22;32965;64.142;-21.912;2022-09-21T07:54:17;9.90;99.90
47226;DHT22;32965;64.142;-21.912;2022-09-21T07:56:43;9.90;99.90
47226;DHT22;32965;64.142;-21.912;2022-09-21T07:59:28;9.90;99.90
47226;DHT22;32965;64.142;-21.912;2022-09-21T08:01:57;10.00;99.90
47226;DHT22;32965;64.142;-21.912;2022-09-21T08:04:23;10.00;99.90
47226;DHT22;32965;64.142;-21.912;2022-09-21T08:06:49;10.10;99.90
47226;DHT22;32965;64.142;-21.912;2022-09-21T08:09:15;10.10;99.90
47226;DHT22;32965;64.142;-21.912;2022-09-21T08:11:43;10.10;99.90
47226;DHT22;32965;64.142;-21.912;2022-09-21T08:14:11;10.20;99.90
47226;DHT22;32965;64.142;-21.912;2022-09-21T08:16:45;10.20;99.90
47226;DHT22;32965;64.142;-21.912;2022-09-21T08:19:12;10.30;99.90
47226;DHT22;32965;64.142;-21.912;2022-09-21T08:21:38;10.30;99.90
47226;DHT22;32965;64.142;-21.912;2022-09-21T08:24:04;10.40;99.90
47226;DHT22;32965;64.142;-21.912;2022-09-21T08:26:30;10.40;99.90
47226;DHT22;32965;64.142;-21.912;2022-09-21T08:28:56;10.40;99.90
47226;DHT22;32965;64.142;-21.912;2022-09-21T08:31:23;10.40;99.90
47226;DHT22;32965;64.142;-21.912;2022-09-21T08:33:50;10.50;99.90
47226;DHT22;32965;64.142;-21.912;2022-09-21T08:36:18;10.50;99.90
47226;DHT22;32965;64.142;-21.912;2022-09-21T08:38:44;10.50;99.90
47226;DHT22;32965;64.142;-21.912;2022-09-21T08:41:24;10.50;99.90
47226;DHT22;32965;64.142;-21.912;2022-09-21T08:44:01;10.50;99.90
47226;DHT22;32965;64.142;-21.912;2022-09-21T08:46:30;10.50;99.90
47226;DHT22;32965;64.142;-21.912;2022-09-21T08:49:11;10.50;99.90
47226;DHT22;32965;64.142;-21.912;2022-09-21T08:51:55;10.60;99.90
47226;DHT22;32965;64.142;-21.912;2022-09-21T08:54:44;10.60;99.90
47226;DHT22;32965;64.142;-21.912;2022-09-21T08:57:13;10.60;99.90
47226;DHT22;32965;64.142;-21.912;2022-09-21T08:59:44;10.60;99.90
47226;DHT22;32965;64.142;-21.912;2022-09-21T09:10:44;10.90;99.90
47226;DHT22;32965;64.142;-21.912;2022-09-21T09:18:51;11.00;99.90
47226;DHT22;32965;64.142;-21.912;2022-09-21T09:21:28;11.00;99.90
47226;DHT22;32965;64.142;-21.912;2022-09-21T09:24:14;11.10;99.90
47226;DHT22;32965;64.142;-21.912;2022-09-21T09:29:39;11.20;99.90
47226;DHT22;32965;64.142;-21.912;2022-09-21T09:32:13;11.30;99.90
47226;DHT22;32965;64.142;-21.912;2022-09-21T09:34:52;11.40;99.90
47226;DHT22;32965;64.142;-21.912;2022-09-21T09:37:23;11.50;99.90
47226;DHT22;32965;64.142;-21.912;2022-09-21T09:39:54;11.50;99.90
47226;DHT22;32965;64.142;-21.912;2022-09-21T09:45:15;11.70;99.90
47226;DHT22;32965;64.142;-21.912;2022-09-21T09:48:11;11.70;99.90
47226;DHT22;32965;64.142;-21.912;2022-09-21T09:50:41;11.80;99.90
47226;DHT22;32965;64.142;-21.912;2022-09-21T09:53:22;11.80;99.90
47226;DHT22;32965;64.142;-21.912;2022-09-21T09:55:50;11.80;99.90
47226;DHT22;32965;64.142;-21.912;2022-09-21T10:01:05;11.90;99.90
47226;DHT22;32965;64.142;-21.912;2022-09-21T10:03:31;11.80;99.90
47226;DHT22;32965;64.142;-21.912;2022-09-21T10:05:57;11.80;99.90
47226;DHT22;32965;64.142;-21.912;2022-09-21T10:11:02;11.80;99.90
47226;DHT22;32965;64.142;-21.912;2022-09-21T10:13:29;11.90;99.90
47226;DHT22;32965;64.142;-21.912;2022-09-21T10:21:33;11.90;99.90
47226;DHT22;32965;64.142;-21.912;2022-09-21T10:27:15;11.90;99.90
47226;DHT22;32965;64.142;-21.912;2022-09-21T10:29:42;11.90;99.90
47226;DHT22;32965;64.142;-21.912;2022-09-21T10:37:32;11.90;99.90
47226;DHT22;32965;64.142;-21.912;2022-09-21T10:40:00;11.90;99.90
47226;DHT22;32965;64.142;-21.912;2022-09-21T10:42:33;11.80;99.90
47226;DHT22;32965;64.142;-21.912;2022-09-21T10:45:14;11.80;99.90
47226;DHT22;32965;64.142;-21.912;2022-09-21T10:47:47;11.80;99.90
47226;DHT22;32965;64.142;-21.912;2022-09-21T10:50:33;11.70;99.90
47226;DHT22;32965;64.142;-21.912;2022-09-21T10:53:23;11.70;99.90
47226;DHT22;32965;64.142;-21.912;2022-09-21T10:56:19;11.60;99.90
47226;DHT22;32965;64.142;-21.912;2022-09-21T10:59:23;11.50;99.90
47226;DHT22;32965;64.142;-21.912;2022-09-21T11:01:52;11.50;99.90
47226;DHT22;32965;64.142;-21.912;2022-09-21T11:04:47;11.40;99.90
47226;DHT22;32965;64.142;-21.912;2022-09-21T11:21:31;11.30;99.90
47226;DHT22;32965;64.142;-21.912;2022-09-21T11:24:32;11.30;99.90
47226;DHT22;32965;64.142;-21.912;2022-09-21T11:38:29;11.20;99.90
47226;DHT22;32965;64.142;-21.912;2022-09-21T11:51:07;10.90;99.90
47226;DHT22;32965;64.142;-21.912;2022-09-21T11:56:38;10.90;99.90
47226;DHT22;32965;64.142;-21.912;2022-09-21T12:07:57;11.00;99.90
47226;DHT22;32965;64.142;-21.912;2022-09-21T12:10:45;11.10;99.90
47226;DHT22;32965;64.142;-21.912;2022-09-21T12:13:42;11.00;99.90
47226;DHT22;32965;64.142;-21.912;2022-09-21T12:16:53;11.10;99.90
47226;DHT22;32965;64.142;-21.912;2022-09-21T12:19:50;11.20;99.90
47226;DHT22;32965;64.142;-21.912;2022-09-21T12:22:26;11.20;99.90
47226;DHT22;32965;64.142;-21.912;2022-09-21T12:24:54;11.30;99.90
47226;DHT22;32965;64.142;-21.912;2022-09-21T12:27:36;11.40;99.90
47226;DHT22;32965;64.142;-21.912;2022-09-21T12:30:16;11.50;99.90
47226;DHT22;32965;64.142;-21.912;2022-09-21T12:35:59;11.60;99.90
47226;DHT22;32965;64.142;-21.912;2022-09-21T12:38:33;11.50;99.90
47226;DHT22;32965;64.142;-21.912;2022-09-21T12:43:42;11.60;99.90
47226;DHT22;32965;64.142;-21.912;2022-09-21T12:46:22;11.60;99.90
47226;DHT22;32965;64.142;-21.912;2022-09-21T12:48:50;11.60;99.90
47226;DHT22;32965;64.142;-21.912;2022-09-21T12:51:32;11.60;99.90
47226;DHT22;32965;64.142;-21.912;2022-09-21T12:54:05;11.70;99.90
47226;DHT22;32965;64.142;-21.912;2022-09-21T12:56:47;11.70;99.90
47226;DHT22;32965;64.142;-21.912;2022-09-21T12:59:36;11.80;99.90
47226;DHT22;32965;64.142;-21.912;2022-09-21T13:08:02;11.80;99.90
47226;DHT22;32965;64.142;-21.912;2022-09-21T13:10:42;11.70;99.90
47226;DHT22;32965;64.142;-21.912;2022-09-21T13:13:28;11.70;99.90
47226;DHT22;32965;64.142;-21.912;2022-09-21T13:15:55;11.60;99.90
47226;DHT22;32965;64.142;-21.912;2022-09-21T13:18:35;11.60;99.90
47226;DHT22;32965;64.142;-21.912;2022-09-21T13:21:19;11.60;99.90
47226;DHT22;32965;64.142;-21.912;2022-09-21T13:26:38;11.60;99.90
47226;DHT22;32965;64.142;-21.912;2022-09-21T13:34:35;11.70;99.90
47226;DHT22;32965;64.142;-21.912;2022-09-21T13:37:35;11.70;99.90
47226;DHT22;32965;64.142;-21.912;2022-09-21T13:44:55;11.70;99.90
47226;DHT22;32965;64.142;-21.912;2022-09-21T13:47:33;11.70;99.90
47226;DHT22;32965;64.142;-21.912;2022-09-21T13:50:09;11.70;99.90
47226;DHT22;32965;64.142;-21.912;2022-09-21T13:52:43;11.70;99.90
47226;DHT22;32965;64.142;-21.912;2022-09-21T13:55:33;11.80;99.90
47226;DHT22;32965;64.142;-21.912;2022-09-21T13:58:23;11.80;99.90
47226;DHT22;32965;64.142;-21.912;2022-09-21T14:00:56;11.70;99.90
47226;DHT22;32965;64.142;-21.912;2022-09-21T14:03:33;11.70;99.90
47226;DHT22;32965;64.142;-21.912;2022-09-21T14:08:36;11.60;99.90
47226;DHT22;32965;64.142;-21.912;2022-09-21T14:24:36;11.70;99.90
47226;DHT22;32965;64.142;-21.912;2022-09-21T14:32:16;11.70;99.90
47226;DHT22;32965;64.142;-21.912;2022-09-21T14:34:47;11.70;99.90
47226;DHT22;32965;64.142;-21.912;2022-09-21T14:37:30;11.70;99.90
47226;DHT22;32965;64.142;-21.912;2022-09-21T14:39:56;11.80;99.90
47226;DHT22;32965;64.142;-21.912;2022-09-21T14:42:27;11.80;99.90
47226;DHT22;32965;64.142;-21.912;2022-09-21T14:44:58;11.80;99.90
47226;DHT22;32965;64.142;-21.912;2022-09-21T14:47:43;12.00;99.90
47226;DHT22;32965;64.142;-21.912;2022-09-21T15:04:42;12.20;99.90
47226;DHT22;32965;64.142;-21.912;2022-09-21T15:21:48;12.40;99.90
47226;DHT22;32965;64.142;-21.912;2022-09-21T15:24:32;12.20;99.90
47226;DHT22;32965;64.142;-21.912;2022-09-21T15:27:04;12.20;99.90
47226;DHT22;32965;64.142;-21.912;2022-09-21T15:29:31;12.10;99.90
47226;DHT22;32965;64.142;-21.912;2022-09-21T15:31:59;12.00;99.90
47226;DHT22;32965;64.142;-21.912;2022-09-21T15:34:25;12.00;99.90
47226;DHT22;32965;64.142;-21.912;2022-09-21T15:36:51;11.90;99.90
47226;DHT22;32965;64.142;-21.912;2022-09-21T15:39:28;11.80;99.90
47226;DHT22;32965;64.142;-21.912;2022-09-21T15:44:33;11.90;99.90
47226;DHT22;32965;64.142;-21.912;2022-09-21T15:47:00;11.90;99.90
47226;DHT22;32965;64.142;-21.912;2022-09-21T15:49:28;12.00;99.90
47226;DHT22;32965;64.142;-21.912;2022-09-21T15:52:15;12.00;99.90
47226;DHT22;32965;64.142;-21.912;2022-09-21T15:55:14;12.20;99.90
47226;DHT22;32965;64.142;-21.912;2022-09-21T15:57:50;12.20;99.90
47226;DHT22;32965;64.142;-21.912;2022-09-21T16:00:18;12.10;99.90
47226;DHT22;32965;64.142;-21.912;2022-09-21T16:03:06;12.10;99.90
47226;DHT22;32965;64.142;-21.912;2022-09-21T16:08:29;12.00;99.90
47226;DHT22;32965;64.142;-21.912;2022-09-21T16:14:14;12.10;99.90
47226;DHT22;32965;64.142;-21.912;2022-09-21T16:22:12;12.30;99.90
47226;DHT22;32965;64.142;-21.912;2022-09-21T16:24:48;12.20;99.90
47226;DHT22;32965;64.142;-21.912;2022-09-21T16:27:18;12.30;99.90
47226;DHT22;32965;64.142;-21.912;2022-09-21T16:29:46;12.40;99.90
47226;DHT22;32965;64.142;-21.912;2022-09-21T16:34:47;12.50;99.90
47226;DHT22;32965;64.142;-21.912;2022-09-21T16:42:16;12.50;99.90
47226;DHT22;32965;64.142;-21.912;2022-09-21T16:44:42;12.40;99.90
47226;DHT22;32965;64.142;-21.912;2022-09-21T16:47:25;12.30;99.90
47226;DHT22;32965;64.142;-21.912;2022-09-21T16:49:53;12.40;99.90
47226;DHT22;32965;64.142;-21.912;2022-09-21T16:52:20;12.40;99.90
47226;DHT22;32965;64.142;-21.912;2022-09-21T16:54:46;12.40;99.90
47226;DHT22;32965;64.142;-21.912;2022-09-21T16:57:15;12.40;99.90
47226;DHT22;32965;64.142;-21.912;2022-09-21T16:59:41;12.40;99.90
47226;DHT22;32965;64.142;-21.912;2022-09-21T17:02:09;12.40;99.90
47226;DHT22;32965;64.142;-21.912;2022-09-21T17:04:35;12.30;99.90
47226;DHT22;32965;64.142;-21.912;2022-09-21T17:07:01;12.30;99.90
47226;DHT22;32965;64.142;-21.912;2022-09-21T17:09:36;12.20;99.90
47226;DHT22;32965;64.142;-21.912;2022-09-21T17:12:07;12.10;99.90
47226;DHT22;32965;64.142;-21.912;2022-09-21T17:14:34;12.00;99.90
47226;DHT22;32965;64.142;-21.912;2022-09-21T17:17:22;11.90;99.90
47226;DHT22;32965;64.142;-21.912;2022-09-21T17:19:50;11.80;99.90
47226;DHT22;32965;64.142;-21.912;2022-09-21T17:22:16;11.80;99.90
47226;DHT22;32965;64.142;-21.912;2022-09-21T17:24:44;11.70;99.90
47226;DHT22;32965;64.142;-21.912;2022-09-21T17:27:11;11.70;99.90
47226;DHT22;32965;64.142;-21.912;2022-09-21T17:29:37;11.50;99.90
47226;DHT22;32965;64.142;-21.912;2022-09-21T17:32:08;11.40;99.90
47226;DHT22;32965;64.142;-21.912;2022-09-21T17:34:34;11.40;99.90
47226;DHT22;32965;64.142;-21.912;2022-09-21T17:37:00;11.30;99.90
47226;DHT22;32965;64.142;-21.912;2022-09-21T17:39:26;11.20;99.90
47226;DHT22;32965;64.142;-21.912;2022-09-21T17:42:02;11.20;99.90
47226;DHT22;32965;64.142;-21.912;2022-09-21T17:44:57;11.30;99.90
47226;DHT22;32965;64.142;-21.912;2022-09-21T17:47:27;11.40;99.90
47226;DHT22;32965;64.142;-21.912;2022-09-21T17:52:48;11.50;99.90
47226;DHT22;32965;64.142;-21.912;2022-09-21T17:55:36;11.40;99.90
47226;DHT22;32965;64.142;-21.912;2022-09-21T18:03:50;11.60;99.90
47226;DHT22;32965;64.142;-21.912;2022-09-21T18:06:17;11.60;99.90
47226;DHT22;32965;64.142;-21.912;2022-09-21T18:08:45;11.60;99.90
47226;DHT22;32965;64.142;-21.912;2022-09-21T18:16:50;11.60;99.90
47226;DHT22;32965;64.142;-21.912;2022-09-21T18:25:00;11.40;99.90
47226;DHT22;32965;64.142;-21.912;2022-09-21T18:27:27;11.30;99.90
47226;DHT22;32965;64.142;-21.912;2022-09-21T18:29:53;11.30;99.90
47226;DHT22;32965;64.142;-21.912;2022-09-21T18:44:07;11.20;99.90
47226;DHT22;32965;64.142;-21.912;2022-09-21T18:49:36;11.20;99.90
47226;DHT22;32965;64.142;-21.912;2022-09-21T18:52:56;11.20;99.90
47226;DHT22;32965;64.142;-21.912;2022-09-21T18:55:32;11.30;99.90
47226;DHT22;32965;64.142;-21.912;2022-09-21T18:58:10;11.40;99.90
47226;DHT22;32965;64.142;-21.912;2022-09-21T19:00:37;11.40;99.90
47226;DHT22;32965;64.142;-21.912;2022-09-21T19:03:10;11.40;99.90
47226;DHT22;32965;64.142;-21.912;2022-09-21T19:09:23;11.60;99.90
47226;DHT22;32965;64.142;-21.912;2022-09-21T19:12:12;11.40;99.90
47226;DHT22;32965;64.142;-21.912;2022-09-21T19:23:29;11.10;99.90
47226;DHT22;32965;64.142;-21.912;2022-09-21T19:26:02;11.00;99.90
47226;DHT22;32965;64.142;-21.912;2022-09-21T19:31:57;10.90;99.90
47226;DHT22;32965;64.142;-21.912;2022-09-21T19:34:26;10.80;99.90
47226;DHT22;32965;64.142;-21.912;2022-09-21T19:36:55;10.80;99.90
47226;DHT22;32965;64.142;-21.912;2022-09-21T19:39:22;10.80;99.90
47226;DHT22;32965;64.142;-21.912;2022-09-21T19:47:32;10.70;99.90
47226;DHT22;32965;64.142;-21.912;2022-09-21T19:50:24;10.60;99.90
47226;DHT22;32965;64.142;-21.912;2022-09-21T19:52:51;10.70;99.90
47226;DHT22;32965;64.142;-21.912;2022-09-21T19:55:40;10.70;99.90
47226;DHT22;32965;64.142;-21.912;2022-09-21T19:58:32;10.70;99.90
47226;DHT22;32965;64.142;-21.912;2022-09-21T20:01:19;10.80;99.90
47226;DHT22;32965;64.142;-21.912;2022-09-21T20:03:47;10.80;99.90
47226;DHT22;32965;64.142;-21.912;2022-09-21T20:11:19;10.90;99.90
47226;DHT22;32965;64.142;-21.912;2022-09-21T20:16:48;10.90;99.90
47226;DHT22;32965;64.142;-21.912;2022-09-21T20:22:42;11.00;99.90
47226;DHT22;32965;64.142;-21.912;2022-09-21T20:25:01;10.90;99.90
47226;DHT22;32965;64.142;-21.912;2022-09-21T20:27:31;10.90;99.90
47226;DHT22;32965;64.142;-21.912;2022-09-21T20:30:06;10.90;99.90
47226;DHT22;32965;64.142;-21.912;2022-09-21T20:32:38;10.90;99.90
47226;DHT22;32965;64.142;-21.912;2022-09-21T20:35:25;11.00;99.90